KLPC/LPC METAR and TAF weather

Enter ICAO airport designator
Station Type Date Time Source
KLPC METAR 2022/01/26 13:56 UTC NOAA

KLPC 261356Z AUTO 09005KT 10SM CLR 04/03 A3010 RMK AO2 SLP194 T00390028


Station Type Date Time Source
KLPC Decoded METAR 2022/01/26 13:56 UTC NOAA

Lompoc, Lompoc Airport, CA, United States (KLPC) 34-40N 120-28W
Jan 26, 2022 - 08:56 AM EST / 2022.01.26 1356 UTC
Wind: from the E (090 degrees) at 6 MPH (5 KT):0
Visibility: 10 mile(s):0
Sky conditions: clear
Temperature: 39.0 F (3.9 C)
Dew Point: 37.0 F (2.8 C)
Relative Humidity: 92%
Pressure (altimeter): 30.1 in. Hg (1019 hPa)
ob: KLPC 261356Z AUTO 09005KT 10SM CLR 04/03 A3010 RMK AO2 SLP194 T00390028
cycle: 14

Station Type Date Time Source
KLPC TAF UTC NOAA

Error!

Example: see airport list